sensor_id;sensor_type;location;lat;lon;timestamp;temperature;humidity
981;DHT22;479;53.514;9.994;2023-09-07T00:01:50;19.90;99.90
981;DHT22;479;53.514;9.994;2023-09-07T00:04:21;19.80;99.90
981;DHT22;479;53.514;9.994;2023-09-07T00:06:48;19.80;99.90
981;DHT22;479;53.514;9.994;2023-09-07T00:09:16;19.80;99.90
981;DHT22;479;53.514;9.994;2023-09-07T00:11:53;19.80;99.90
981;DHT22;479;53.514;9.994;2023-09-07T00:14:23;19.80;99.90
981;DHT22;479;53.514;9.994;2023-09-07T00:16:50;19.70;99.90
981;DHT22;479;53.514;9.994;2023-09-07T00:19:17;19.70;99.90
981;DHT22;479;53.514;9.994;2023-09-07T00:21:49;19.70;99.90
981;DHT22;479;53.514;9.994;2023-09-07T00:24:24;19.70;99.90
981;DHT22;479;53.514;9.994;2023-09-07T00:26:51;19.70;99.90
981;DHT22;479;53.514;9.994;2023-09-07T00:29:18;19.80;99.90
981;DHT22;479;53.514;9.994;2023-09-07T00:31:45;19.80;99.90
981;DHT22;479;53.514;9.994;2023-09-07T00:34:12;19.80;99.90
981;DHT22;479;53.514;9.994;2023-09-07T00:36:41;19.80;99.90
981;DHT22;479;53.514;9.994;2023-09-07T00:39:08;19.80;99.90
981;DHT22;479;53.514;9.994;2023-09-07T00:41:37;19.80;99.90
981;DHT22;479;53.514;9.994;2023-09-07T00:44:09;19.60;99.90
981;DHT22;479;53.514;9.994;2023-09-07T00:46:36;19.50;99.90
981;DHT22;479;53.514;9.994;2023-09-07T00:49:03;19.50;99.90
981;DHT22;479;53.514;9.994;2023-09-07T00:51:31;19.50;99.90
981;DHT22;479;53.514;9.994;2023-09-07T00:53:58;19.40;99.90
981;DHT22;479;53.514;9.994;2023-09-07T00:56:26;19.40;99.90
981;DHT22;479;53.514;9.994;2023-09-07T00:58:54;19.30;99.90
981;DHT22;479;53.514;9.994;2023-09-07T01:01:25;19.30;99.90
981;DHT22;479;53.514;9.994;2023-09-07T01:03:52;19.30;99.90
981;DHT22;479;53.514;9.994;2023-09-07T01:06:28;19.30;99.90
981;DHT22;479;53.514;9.994;2023-09-07T01:08:58;19.30;99.90
981;DHT22;479;53.514;9.994;2023-09-07T01:11:35;19.30;99.90
981;DHT22;479;53.514;9.994;2023-09-07T01:14:04;19.20;99.90
981;DHT22;479;53.514;9.994;2023-09-07T01:16:32;19.10;99.90
981;DHT22;479;53.514;9.994;2023-09-07T01:19:01;19.10;99.90
981;DHT22;479;53.514;9.994;2023-09-07T01:21:34;19.00;99.90
981;DHT22;479;53.514;9.994;2023-09-07T01:24:04;18.90;99.90
981;DHT22;479;53.514;9.994;2023-09-07T01:26:31;18.90;99.90
981;DHT22;479;53.514;9.994;2023-09-07T01:28:58;18.90;99.90
981;DHT22;479;53.514;9.994;2023-09-07T01:31:25;18.80;99.90
981;DHT22;479;53.514;9.994;2023-09-07T01:33:52;18.80;99.90
981;DHT22;479;53.514;9.994;2023-09-07T01:36:19;18.70;99.90
981;DHT22;479;53.514;9.994;2023-09-07T01:38:47;18.70;99.90
981;DHT22;479;53.514;9.994;2023-09-07T01:41:15;18.70;99.90
981;DHT22;479;53.514;9.994;2023-09-07T01:43:42;18.70;99.90
981;DHT22;479;53.514;9.994;2023-09-07T01:46:09;18.70;99.90
981;DHT22;479;53.514;9.994;2023-09-07T01:48:36;18.60;99.90
981;DHT22;479;53.514;9.994;2023-09-07T01:51:03;18.60;99.90
981;DHT22;479;53.514;9.994;2023-09-07T01:53:30;18.60;99.90
981;DHT22;479;53.514;9.994;2023-09-07T01:55:58;18.60;99.90
981;DHT22;479;53.514;9.994;2023-09-07T01:58:25;18.60;99.90
981;DHT22;479;53.514;9.994;2023-09-07T02:00:53;18.50;99.90
981;DHT22;479;53.514;9.994;2023-09-07T02:03:22;18.50;99.90
981;DHT22;479;53.514;9.994;2023-09-07T02:05:49;18.50;99.90
981;DHT22;479;53.514;9.994;2023-09-07T02:08:16;18.50;99.90
981;DHT22;479;53.514;9.994;2023-09-07T02:10:43;18.50;99.90
981;DHT22;479;53.514;9.994;2023-09-07T02:13:11;18.50;99.90
981;DHT22;479;53.514;9.994;2023-09-07T02:15:38;18.50;99.90
981;DHT22;479;53.514;9.994;2023-09-07T02:18:06;18.50;99.90
981;DHT22;479;53.514;9.994;2023-09-07T02:20:33;18.50;99.90
981;DHT22;479;53.514;9.994;2023-09-07T02:23:00;18.40;99.90
981;DHT22;479;53.514;9.994;2023-09-07T02:25:28;18.40;99.90
981;DHT22;479;53.514;9.994;2023-09-07T02:27:56;18.40;99.90
981;DHT22;479;53.514;9.994;2023-09-07T02:30:25;18.30;99.90
981;DHT22;479;53.514;9.994;2023-09-07T02:32:51;18.30;99.90
981;DHT22;479;53.514;9.994;2023-09-07T02:35:19;18.20;99.90
981;DHT22;479;53.514;9.994;2023-09-07T02:37:46;18.20;99.90
981;DHT22;479;53.514;9.994;2023-09-07T02:40:13;18.10;99.90
981;DHT22;479;53.514;9.994;2023-09-07T02:42:41;18.10;99.90
981;DHT22;479;53.514;9.994;2023-09-07T02:45:11;18.10;99.90
981;DHT22;479;53.514;9.994;2023-09-07T02:47:39;18.00;99.90
981;DHT22;479;53.514;9.994;2023-09-07T02:50:07;17.90;99.90
981;DHT22;479;53.514;9.994;2023-09-07T02:52:34;18.00;99.90
981;DHT22;479;53.514;9.994;2023-09-07T02:55:01;17.90;99.90
981;DHT22;479;53.514;9.994;2023-09-07T02:57:29;17.90;99.90
981;DHT22;479;53.514;9.994;2023-09-07T02:59:56;17.90;99.90
981;DHT22;479;53.514;9.994;2023-09-07T03:02:23;17.90;99.90
981;DHT22;479;53.514;9.994;2023-09-07T03:04:54;17.90;99.90
981;DHT22;479;53.514;9.994;2023-09-07T03:07:23;17.90;99.90
981;DHT22;479;53.514;9.994;2023-09-07T03:09:51;17.90;99.90
981;DHT22;479;53.514;9.994;2023-09-07T03:12:18;17.90;99.90
981;DHT22;479;53.514;9.994;2023-09-07T03:14:46;17.90;99.90
981;DHT22;479;53.514;9.994;2023-09-07T03:17:14;17.90;99.90
981;DHT22;479;53.514;9.994;2023-09-07T03:19:42;17.90;99.90
981;DHT22;479;53.514;9.994;2023-09-07T03:22:11;17.90;99.90
981;DHT22;479;53.514;9.994;2023-09-07T03:24:37;17.90;99.90
981;DHT22;479;53.514;9.994;2023-09-07T03:27:04;17.80;99.90
981;DHT22;479;53.514;9.994;2023-09-07T03:29:32;17.80;99.90
981;DHT22;479;53.514;9.994;2023-09-07T03:32:02;17.80;99.90
981;DHT22;479;53.514;9.994;2023-09-07T03:34:29;17.80;99.90
981;DHT22;479;53.514;9.994;2023-09-07T03:36:56;17.80;99.90
981;DHT22;479;53.514;9.994;2023-09-07T03:39:25;17.80;99.90
981;DHT22;479;53.514;9.994;2023-09-07T03:41:52;17.80;99.90
981;DHT22;479;53.514;9.994;2023-09-07T03:44:22;17.80;99.90
981;DHT22;479;53.514;9.994;2023-09-07T03:46:49;17.70;99.90
981;DHT22;479;53.514;9.994;2023-09-07T03:49:16;17.70;99.90
981;DHT22;479;53.514;9.994;2023-09-07T03:51:43;17.60;99.90
981;DHT22;479;53.514;9.994;2023-09-07T03:54:09;17.70;99.90
981;DHT22;479;53.514;9.994;2023-09-07T03:56:38;17.60;99.90
981;DHT22;479;53.514;9.994;2023-09-07T03:59:07;17.60;99.90
981;DHT22;479;53.514;9.994;2023-09-07T04:01:34;17.50;99.90
981;DHT22;479;53.514;9.994;2023-09-07T04:04:01;17.50;99.90
981;DHT22;479;53.514;9.994;2023-09-07T04:06:28;17.50;99.90
981;DHT22;479;53.514;9.994;2023-09-07T04:08:55;17.50;99.90
981;DHT22;479;53.514;9.994;2023-09-07T04:11:22;17.40;99.90
981;DHT22;479;53.514;9.994;2023-09-07T04:13:50;17.40;99.90
981;DHT22;479;53.514;9.994;2023-09-07T04:16:17;17.40;99.90
981;DHT22;479;53.514;9.994;2023-09-07T04:18:44;17.40;99.90
981;DHT22;479;53.514;9.994;2023-09-07T04:21:11;17.30;99.90
981;DHT22;479;53.514;9.994;2023-09-07T04:23:38;17.30;99.90
981;DHT22;479;53.514;9.994;2023-09-07T04:26:06;17.30;99.90
981;DHT22;479;53.514;9.994;2023-09-07T04:28:34;17.30;99.90
981;DHT22;479;53.514;9.994;2023-09-07T04:31:03;17.30;99.90
981;DHT22;479;53.514;9.994;2023-09-07T04:33:30;17.40;99.90
981;DHT22;479;53.514;9.994;2023-09-07T04:36:05;17.40;99.90
981;DHT22;479;53.514;9.994;2023-09-07T04:38:33;17.40;99.90
981;DHT22;479;53.514;9.994;2023-09-07T04:41:06;17.30;99.90
981;DHT22;479;53.514;9.994;2023-09-07T04:43:33;17.30;99.90
981;DHT22;479;53.514;9.994;2023-09-07T04:46:02;17.30;99.90
981;DHT22;479;53.514;9.994;2023-09-07T04:48:29;17.30;99.90
981;DHT22;479;53.514;9.994;2023-09-07T04:50:58;17.30;99.90
981;DHT22;479;53.514;9.994;2023-09-07T04:53:25;17.20;99.90
981;DHT22;479;53.514;9.994;2023-09-07T04:55:52;17.30;99.90
981;DHT22;479;53.514;9.994;2023-09-07T04:58:19;17.30;99.90
981;DHT22;479;53.514;9.994;2023-09-07T05:00:46;17.30;99.90
981;DHT22;479;53.514;9.994;2023-09-07T05:03:14;17.40;99.90
981;DHT22;479;53.514;9.994;2023-09-07T05:05:42;17.40;99.90
981;DHT22;479;53.514;9.994;2023-09-07T05:08:09;17.50;99.90
981;DHT22;479;53.514;9.994;2023-09-07T05:10:37;17.50;99.90
981;DHT22;479;53.514;9.994;2023-09-07T05:13:04;17.40;99.90
981;DHT22;479;53.514;9.994;2023-09-07T05:15:31;17.50;99.90
981;DHT22;479;53.514;9.994;2023-09-07T05:17:58;17.50;99.90
981;DHT22;479;53.514;9.994;2023-09-07T05:20:30;17.60;99.90
981;DHT22;479;53.514;9.994;2023-09-07T05:22:56;17.60;99.90
981;DHT22;479;53.514;9.994;2023-09-07T05:25:25;17.60;99.90
981;DHT22;479;53.514;9.994;2023-09-07T05:27:52;17.60;99.90
981;DHT22;479;53.514;9.994;2023-09-07T05:30:19;17.80;99.90
981;DHT22;479;53.514;9.994;2023-09-07T05:32:46;17.80;99.90
981;DHT22;479;53.514;9.994;2023-09-07T05:35:14;17.90;99.90
981;DHT22;479;53.514;9.994;2023-09-07T05:37:44;17.90;99.90
981;DHT22;479;53.514;9.994;2023-09-07T05:40:12;18.00;99.90
981;DHT22;479;53.514;9.994;2023-09-07T05:42:39;18.10;99.90
981;DHT22;479;53.514;9.994;2023-09-07T05:45:07;18.20;99.90
981;DHT22;479;53.514;9.994;2023-09-07T05:47:34;18.30;99.90
981;DHT22;479;53.514;9.994;2023-09-07T05:50:02;18.40;99.90
981;DHT22;479;53.514;9.994;2023-09-07T05:52:29;18.50;99.90
981;DHT22;479;53.514;9.994;2023-09-07T05:54:58;18.60;99.90
981;DHT22;479;53.514;9.994;2023-09-07T05:57:25;18.70;99.90
981;DHT22;479;53.514;9.994;2023-09-07T05:59:52;18.80;99.90
981;DHT22;479;53.514;9.994;2023-09-07T06:02:19;18.80;99.90
981;DHT22;479;53.514;9.994;2023-09-07T06:04:46;18.90;99.90
981;DHT22;479;53.514;9.994;2023-09-07T06:07:13;18.90;99.90
981;DHT22;479;53.514;9.994;2023-09-07T06:09:40;19.00;99.90
981;DHT22;479;53.514;9.994;2023-09-07T06:12:08;19.10;99.90
981;DHT22;479;53.514;9.994;2023-09-07T06:14:35;19.20;99.90
981;DHT22;479;53.514;9.994;2023-09-07T06:17:02;19.20;99.90
981;DHT22;479;53.514;9.994;2023-09-07T06:19:32;19.30;99.90
981;DHT22;479;53.514;9.994;2023-09-07T06:22:02;19.40;99.90
981;DHT22;479;53.514;9.994;2023-09-07T06:24:29;19.50;99.90
981;DHT22;479;53.514;9.994;2023-09-07T06:27:00;19.50;99.90
981;DHT22;479;53.514;9.994;2023-09-07T06:29:31;19.50;99.90
981;DHT22;479;53.514;9.994;2023-09-07T06:31:59;19.60;99.90
981;DHT22;479;53.514;9.994;2023-09-07T06:34:27;19.70;99.90
981;DHT22;479;53.514;9.994;2023-09-07T06:36:54;19.70;99.90
981;DHT22;479;53.514;9.994;2023-09-07T06:39:21;19.80;99.90
981;DHT22;479;53.514;9.994;2023-09-07T06:41:48;19.90;99.90
981;DHT22;479;53.514;9.994;2023-09-07T06:44:17;20.00;99.90
981;DHT22;479;53.514;9.994;2023-09-07T06:46:47;20.10;99.90
981;DHT22;479;53.514;9.994;2023-09-07T06:49:19;20.20;99.90
981;DHT22;479;53.514;9.994;2023-09-07T06:51:46;20.30;99.90
981;DHT22;479;53.514;9.994;2023-09-07T06:54:13;20.40;99.90
981;DHT22;479;53.514;9.994;2023-09-07T06:56:41;20.60;99.90
981;DHT22;479;53.514;9.994;2023-09-07T06:59:08;20.70;99.90
981;DHT22;479;53.514;9.994;2023-09-07T07:01:35;20.80;99.90
981;DHT22;479;53.514;9.994;2023-09-07T07:04:06;20.90;99.90
981;DHT22;479;53.514;9.994;2023-09-07T07:06:33;21.10;99.90
981;DHT22;479;53.514;9.994;2023-09-07T07:09:00;21.30;99.90
981;DHT22;479;53.514;9.994;2023-09-07T07:11:28;21.40;99.90
981;DHT22;479;53.514;9.994;2023-09-07T07:14:33;21.40;99.90
981;DHT22;479;53.514;9.994;2023-09-07T07:17:00;21.50;99.90
981;DHT22;479;53.514;9.994;2023-09-07T07:19:29;21.60;99.90
981;DHT22;479;53.514;9.994;2023-09-07T07:21:56;21.60;99.90
981;DHT22;479;53.514;9.994;2023-09-07T07:24:23;21.70;99.90
981;DHT22;479;53.514;9.994;2023-09-07T07:26:50;21.90;99.90
981;DHT22;479;53.514;9.994;2023-09-07T07:29:17;22.10;99.90
981;DHT22;479;53.514;9.994;2023-09-07T07:31:45;22.40;99.90
981;DHT22;479;53.514;9.994;2023-09-07T07:34:13;22.70;99.90
981;DHT22;479;53.514;9.994;2023-09-07T07:36:41;23.00;99.90
981;DHT22;479;53.514;9.994;2023-09-07T07:39:08;23.10;99.90
981;DHT22;479;53.514;9.994;2023-09-07T07:41:36;23.10;99.90
981;DHT22;479;53.514;9.994;2023-09-07T07:44:04;23.30;99.90
981;DHT22;479;53.514;9.994;2023-09-07T07:46:31;23.40;99.90
981;DHT22;479;53.514;9.994;2023-09-07T07:48:58;23.60;99.90
981;DHT22;479;53.514;9.994;2023-09-07T07:51:25;23.60;99.90
981;DHT22;479;53.514;9.994;2023-09-07T07:53:55;23.70;99.90
981;DHT22;479;53.514;9.994;2023-09-07T07:56:23;24.00;99.90
981;DHT22;479;53.514;9.994;2023-09-07T07:58:52;24.20;99.90
981;DHT22;479;53.514;9.994;2023-09-07T08:01:20;24.40;99.90
981;DHT22;479;53.514;9.994;2023-09-07T08:03:48;24.40;99.90
981;DHT22;479;53.514;9.994;2023-09-07T08:06:15;24.60;99.90
981;DHT22;479;53.514;9.994;2023-09-07T08:08:42;24.60;99.90
981;DHT22;479;53.514;9.994;2023-09-07T08:11:11;24.80;99.90
981;DHT22;479;53.514;9.994;2023-09-07T08:13:39;25.00;99.90
981;DHT22;479;53.514;9.994;2023-09-07T08:16:07;25.30;99.90
981;DHT22;479;53.514;9.994;2023-09-07T08:18:35;25.50;99.90
981;DHT22;479;53.514;9.994;2023-09-07T08:21:02;25.80;99.90
981;DHT22;479;53.514;9.994;2023-09-07T08:23:29;26.30;99.90
981;DHT22;479;53.514;9.994;2023-09-07T08:25:57;26.90;99.90
981;DHT22;479;53.514;9.994;2023-09-07T08:28:26;27.50;99.90
981;DHT22;479;53.514;9.994;2023-09-07T08:30:54;27.70;99.90
981;DHT22;479;53.514;9.994;2023-09-07T08:33:24;28.30;99.90
981;DHT22;479;53.514;9.994;2023-09-07T08:35:55;28.90;99.90
981;DHT22;479;53.514;9.994;2023-09-07T08:38:22;29.60;99.90
981;DHT22;479;53.514;9.994;2023-09-07T08:40:54;30.10;99.90
981;DHT22;479;53.514;9.994;2023-09-07T08:43:21;30.60;99.90
981;DHT22;479;53.514;9.994;2023-09-07T08:45:51;30.80;99.90
981;DHT22;479;53.514;9.994;2023-09-07T08:48:26;31.10;99.90
981;DHT22;479;53.514;9.994;2023-09-07T08:50:55;31.10;99.90
981;DHT22;479;53.514;9.994;2023-09-07T08:53:23;30.90;99.90
981;DHT22;479;53.514;9.994;2023-09-07T08:55:50;30.90;99.90
981;DHT22;479;53.514;9.994;2023-09-07T08:58:17;31.00;99.90
981;DHT22;479;53.514;9.994;2023-09-07T09:00:44;31.10;99.90
981;DHT22;479;53.514;9.994;2023-09-07T09:03:12;31.00;99.90
981;DHT22;479;53.514;9.994;2023-09-07T09:05:40;30.70;99.90
981;DHT22;479;53.514;9.994;2023-09-07T09:08:07;30.90;99.90
981;DHT22;479;53.514;9.994;2023-09-07T09:10:34;31.20;99.90
981;DHT22;479;53.514;9.994;2023-09-07T09:13:01;31.20;99.90
981;DHT22;479;53.514;9.994;2023-09-07T09:15:28;30.90;99.20
981;DHT22;479;53.514;9.994;2023-09-07T09:17:55;30.70;98.20
981;DHT22;479;53.514;9.994;2023-09-07T09:20:24;30.70;96.90
981;DHT22;479;53.514;9.994;2023-09-07T09:22:53;30.40;96.20
981;DHT22;479;53.514;9.994;2023-09-07T09:25:20;30.10;96.10
981;DHT22;479;53.514;9.994;2023-09-07T09:27:47;30.20;96.20
981;DHT22;479;53.514;9.994;2023-09-07T09:30:15;30.40;96.00
981;DHT22;479;53.514;9.994;2023-09-07T09:32:42;30.30;95.00
981;DHT22;479;53.514;9.994;2023-09-07T09:35:10;30.30;95.10
981;DHT22;479;53.514;9.994;2023-09-07T09:37:45;30.50;94.50
981;DHT22;479;53.514;9.994;2023-09-07T09:40:13;30.50;94.00
981;DHT22;479;53.514;9.994;2023-09-07T09:42:42;30.80;93.60
981;DHT22;479;53.514;9.994;2023-09-07T09:45:10;31.30;93.00
981;DHT22;479;53.514;9.994;2023-09-07T09:47:39;31.50;92.00
981;DHT22;479;53.514;9.994;2023-09-07T09:50:07;31.20;90.70
981;DHT22;479;53.514;9.994;2023-09-07T09:52:35;30.70;90.80
981;DHT22;479;53.514;9.994;2023-09-07T09:55:06;30.40;91.00
981;DHT22;479;53.514;9.994;2023-09-07T09:57:34;30.40;90.80
981;DHT22;479;53.514;9.994;2023-09-07T10:00:02;30.60;90.90
981;DHT22;479;53.514;9.994;2023-09-07T10:02:48;30.60;90.00
981;DHT22;479;53.514;9.994;2023-09-07T10:05:17;30.50;89.40
981;DHT22;479;53.514;9.994;2023-09-07T10:07:48;30.30;87.70
981;DHT22;479;53.514;9.994;2023-09-07T10:10:18;30.00;87.60
981;DHT22;479;53.514;9.994;2023-09-07T10:12:51;30.10;89.10
981;DHT22;479;53.514;9.994;2023-09-07T10:15:23;30.30;89.90
981;DHT22;479;53.514;9.994;2023-09-07T10:17:50;30.50;88.60
981;DHT22;479;53.514;9.994;2023-09-07T10:20:28;30.30;86.70
981;DHT22;479;53.514;9.994;2023-09-07T10:23:02;30.20;86.80
981;DHT22;479;53.514;9.994;2023-09-07T10:25:31;30.40;87.70
981;DHT22;479;53.514;9.994;2023-09-07T10:27:58;30.80;87.50
981;DHT22;479;53.514;9.994;2023-09-07T10:30:25;31.10;85.50
981;DHT22;479;53.514;9.994;2023-09-07T10:32:52;30.80;85.20
981;DHT22;479;53.514;9.994;2023-09-07T10:35:20;30.40;85.00
981;DHT22;479;53.514;9.994;2023-09-07T10:37:49;30.20;85.40
981;DHT22;479;53.514;9.994;2023-09-07T10:40:20;30.10;83.00
981;DHT22;479;53.514;9.994;2023-09-07T10:42:48;30.30;82.60
981;DHT22;479;53.514;9.994;2023-09-07T10:45:16;30.20;82.20
981;DHT22;479;53.514;9.994;2023-09-07T10:47:43;30.00;83.80
981;DHT22;479;53.514;9.994;2023-09-07T10:50:12;30.00;84.80
981;DHT22;479;53.514;9.994;2023-09-07T10:52:39;29.90;84.50
981;DHT22;479;53.514;9.994;2023-09-07T10:55:08;30.10;84.90
981;DHT22;479;53.514;9.994;2023-09-07T10:57:43;30.30;83.30
981;DHT22;479;53.514;9.994;2023-09-07T11:00:13;30.20;80.90
981;DHT22;479;53.514;9.994;2023-09-07T11:02:41;29.80;81.50
981;DHT22;479;53.514;9.994;2023-09-07T11:05:08;29.60;83.30
981;DHT22;479;53.514;9.994;2023-09-07T11:07:36;29.60;83.50
981;DHT22;479;53.514;9.994;2023-09-07T11:10:05;29.50;84.00
981;DHT22;479;53.514;9.994;2023-09-07T11:12:37;29.50;84.70
981;DHT22;479;53.514;9.994;2023-09-07T11:15:05;29.80;85.10
981;DHT22;479;53.514;9.994;2023-09-07T11:17:33;29.80;83.80
981;DHT22;479;53.514;9.994;2023-09-07T11:22:37;29.60;84.00
981;DHT22;479;53.514;9.994;2023-09-07T11:25:05;29.40;82.40
981;DHT22;479;53.514;9.994;2023-09-07T11:27:32;29.20;84.80
981;DHT22;479;53.514;9.994;2023-09-07T11:30:01;29.20;84.50
981;DHT22;479;53.514;9.994;2023-09-07T11:32:34;28.90;85.10
981;DHT22;479;53.514;9.994;2023-09-07T11:35:02;28.60;85.70
981;DHT22;479;53.514;9.994;2023-09-07T11:37:33;28.40;86.90
981;DHT22;479;53.514;9.994;2023-09-07T11:40:00;28.20;86.80
981;DHT22;479;53.514;9.994;2023-09-07T11:42:30;28.10;88.80
981;DHT22;479;53.514;9.994;2023-09-07T11:44:57;28.00;89.60
981;DHT22;479;53.514;9.994;2023-09-07T11:47:23;28.10;90.50
981;DHT22;479;53.514;9.994;2023-09-07T11:49:52;28.10;90.20
981;DHT22;479;53.514;9.994;2023-09-07T11:52:18;28.00;89.70
981;DHT22;479;53.514;9.994;2023-09-07T11:54:45;28.00;89.60
981;DHT22;479;53.514;9.994;2023-09-07T11:57:12;27.80;90.40
981;DHT22;479;53.514;9.994;2023-09-07T11:59:41;27.80;90.40
981;DHT22;479;53.514;9.994;2023-09-07T12:02:08;27.80;90.40
981;DHT22;479;53.514;9.994;2023-09-07T12:04:36;27.80;90.80
981;DHT22;479;53.514;9.994;2023-09-07T12:07:05;27.70;90.60
981;DHT22;479;53.514;9.994;2023-09-07T12:09:32;27.70;90.40
981;DHT22;479;53.514;9.994;2023-09-07T12:11:59;27.70;90.30
981;DHT22;479;53.514;9.994;2023-09-07T12:14:25;27.60;90.00
981;DHT22;479;53.514;9.994;2023-09-07T12:16:52;27.60;90.30
981;DHT22;479;53.514;9.994;2023-09-07T12:19:19;27.70;90.90
981;DHT22;479;53.514;9.994;2023-09-07T12:21:46;27.80;90.10
981;DHT22;479;53.514;9.994;2023-09-07T12:24:15;27.80;89.60
981;DHT22;479;53.514;9.994;2023-09-07T12:26:42;27.80;90.40
981;DHT22;479;53.514;9.994;2023-09-07T12:29:09;27.90;86.80
981;DHT22;479;53.514;9.994;2023-09-07T12:31:36;28.00;86.20
981;DHT22;479;53.514;9.994;2023-09-07T12:34:03;27.90;84.90
981;DHT22;479;53.514;9.994;2023-09-07T12:36:30;27.90;86.30
981;DHT22;479;53.514;9.994;2023-09-07T12:38:57;27.80;86.10
981;DHT22;479;53.514;9.994;2023-09-07T12:41:28;27.80;86.50
981;DHT22;479;53.514;9.994;2023-09-07T12:43:56;27.70;86.70
981;DHT22;479;53.514;9.994;2023-09-07T12:46:23;27.70;83.40
981;DHT22;479;53.514;9.994;2023-09-07T12:48:50;27.80;84.80
981;DHT22;479;53.514;9.994;2023-09-07T12:51:17;27.80;84.50
981;DHT22;479;53.514;9.994;2023-09-07T12:53:44;27.80;83.30
981;DHT22;479;53.514;9.994;2023-09-07T12:56:10;27.70;83.30
981;DHT22;479;53.514;9.994;2023-09-07T12:58:40;27.70;83.90
981;DHT22;479;53.514;9.994;2023-09-07T13:01:07;27.70;84.80
981;DHT22;479;53.514;9.994;2023-09-07T13:03:35;27.70;86.20
981;DHT22;479;53.514;9.994;2023-09-07T13:06:02;27.70;85.60
981;DHT22;479;53.514;9.994;2023-09-07T13:08:29;27.70;85.00
981;DHT22;479;53.514;9.994;2023-09-07T13:10:56;27.80;84.20
981;DHT22;479;53.514;9.994;2023-09-07T13:13:23;27.80;83.30
981;DHT22;479;53.514;9.994;2023-09-07T13:15:55;27.70;83.60
981;DHT22;479;53.514;9.994;2023-09-07T13:18:22;27.80;82.80
981;DHT22;479;53.514;9.994;2023-09-07T13:20:49;27.70;82.50
981;DHT22;479;53.514;9.994;2023-09-07T13:23:17;27.70;81.80
981;DHT22;479;53.514;9.994;2023-09-07T13:25:44;27.70;81.50
981;DHT22;479;53.514;9.994;2023-09-07T13:28:11;27.80;79.50
981;DHT22;479;53.514;9.994;2023-09-07T13:30:38;27.70;78.60
981;DHT22;479;53.514;9.994;2023-09-07T13:33:06;27.70;77.60
981;DHT22;479;53.514;9.994;2023-09-07T13:35:33;27.70;78.70
981;DHT22;479;53.514;9.994;2023-09-07T13:38:00;27.70;76.70
981;DHT22;479;53.514;9.994;2023-09-07T13:40:27;27.70;76.90
981;DHT22;479;53.514;9.994;2023-09-07T13:42:55;27.70;76.40
981;DHT22;479;53.514;9.994;2023-09-07T13:45:22;27.70;77.60
981;DHT22;479;53.514;9.994;2023-09-07T13:47:49;27.70;77.70
981;DHT22;479;53.514;9.994;2023-09-07T13:50:17;27.70;77.50
981;DHT22;479;53.514;9.994;2023-09-07T13:52:44;27.80;77.90
981;DHT22;479;53.514;9.994;2023-09-07T13:55:11;27.80;77.60
981;DHT22;479;53.514;9.994;2023-09-07T13:57:38;27.70;77.40
981;DHT22;479;53.514;9.994;2023-09-07T14:00:06;27.70;77.40
981;DHT22;479;53.514;9.994;2023-09-07T14:02:33;27.70;76.00
981;DHT22;479;53.514;9.994;2023-09-07T14:04:59;27.70;75.70
981;DHT22;479;53.514;9.994;2023-09-07T14:07:28;27.70;75.30
981;DHT22;479;53.514;9.994;2023-09-07T14:09:55;27.70;74.90
981;DHT22;479;53.514;9.994;2023-09-07T14:12:21;27.70;75.80
981;DHT22;479;53.514;9.994;2023-09-07T14:14:49;27.70;75.20
981;DHT22;479;53.514;9.994;2023-09-07T14:17:16;27.80;76.40
981;DHT22;479;53.514;9.994;2023-09-07T14:19:43;27.80;75.80
981;DHT22;479;53.514;9.994;2023-09-07T14:22:11;27.80;76.30
981;DHT22;479;53.514;9.994;2023-09-07T14:24:40;27.80;74.30
981;DHT22;479;53.514;9.994;2023-09-07T14:27:07;27.80;74.80
981;DHT22;479;53.514;9.994;2023-09-07T14:29:34;27.80;72.60
981;DHT22;479;53.514;9.994;2023-09-07T14:32:02;27.80;73.50
981;DHT22;479;53.514;9.994;2023-09-07T14:34:29;27.80;72.90
981;DHT22;479;53.514;9.994;2023-09-07T14:36:56;27.80;72.90
981;DHT22;479;53.514;9.994;2023-09-07T14:39:23;27.80;72.50
981;DHT22;479;53.514;9.994;2023-09-07T14:41:52;27.80;72.50
981;DHT22;479;53.514;9.994;2023-09-07T14:44:19;27.80;72.20
981;DHT22;479;53.514;9.994;2023-09-07T14:46:46;27.80;73.70
981;DHT22;479;53.514;9.994;2023-09-07T14:49:15;27.80;74.20
981;DHT22;479;53.514;9.994;2023-09-07T14:51:43;27.80;75.00
981;DHT22;479;53.514;9.994;2023-09-07T14:54:10;27.80;75.40
981;DHT22;479;53.514;9.994;2023-09-07T14:56:38;27.80;75.70
981;DHT22;479;53.514;9.994;2023-09-07T14:59:06;27.80;75.80
981;DHT22;479;53.514;9.994;2023-09-07T15:01:33;27.70;75.80
981;DHT22;479;53.514;9.994;2023-09-07T15:04:00;27.70;76.30
981;DHT22;479;53.514;9.994;2023-09-07T15:06:27;27.70;76.70
981;DHT22;479;53.514;9.994;2023-09-07T15:08:54;27.70;77.40
981;DHT22;479;53.514;9.994;2023-09-07T15:11:22;27.70;77.40
981;DHT22;479;53.514;9.994;2023-09-07T15:13:49;27.70;78.40
981;DHT22;479;53.514;9.994;2023-09-07T15:16:20;27.70;79.10
981;DHT22;479;53.514;9.994;2023-09-07T15:18:47;27.70;78.30
981;DHT22;479;53.514;9.994;2023-09-07T15:21:13;27.70;78.00
981;DHT22;479;53.514;9.994;2023-09-07T15:23:41;27.70;78.50
981;DHT22;479;53.514;9.994;2023-09-07T15:26:09;27.60;77.90
981;DHT22;479;53.514;9.994;2023-09-07T15:28:37;27.60;78.30
981;DHT22;479;53.514;9.994;2023-09-07T15:31:05;27.60;78.70
981;DHT22;479;53.514;9.994;2023-09-07T15:33:34;27.60;79.60
981;DHT22;479;53.514;9.994;2023-09-07T15:36:00;27.60;80.20
981;DHT22;479;53.514;9.994;2023-09-07T15:38:27;27.60;80.20
981;DHT22;479;53.514;9.994;2023-09-07T15:40:55;27.60;79.90
981;DHT22;479;53.514;9.994;2023-09-07T15:43:22;27.50;80.00
981;DHT22;479;53.514;9.994;2023-09-07T15:45:50;27.50;79.30
981;DHT22;479;53.514;9.994;2023-09-07T15:48:16;27.50;80.50
981;DHT22;479;53.514;9.994;2023-09-07T15:50:45;27.50;81.30
981;DHT22;479;53.514;9.994;2023-09-07T15:53:12;27.50;81.40
981;DHT22;479;53.514;9.994;2023-09-07T15:55:39;27.50;80.40
981;DHT22;479;53.514;9.994;2023-09-07T15:58:07;27.50;81.20
981;DHT22;479;53.514;9.994;2023-09-07T16:00:34;27.40;80.80
981;DHT22;479;53.514;9.994;2023-09-07T16:03:02;27.40;81.90
981;DHT22;479;53.514;9.994;2023-09-07T16:05:29;27.40;82.20
981;DHT22;479;53.514;9.994;2023-09-07T16:07:57;27.30;83.00
981;DHT22;479;53.514;9.994;2023-09-07T16:10:24;27.30;83.30
981;DHT22;479;53.514;9.994;2023-09-07T16:12:51;27.30;83.40
981;DHT22;479;53.514;9.994;2023-09-07T16:15:18;27.30;83.50
981;DHT22;479;53.514;9.994;2023-09-07T16:17:45;27.30;83.20
981;DHT22;479;53.514;9.994;2023-09-07T16:20:12;27.30;83.10
981;DHT22;479;53.514;9.994;2023-09-07T16:22:39;27.30;82.70
981;DHT22;479;53.514;9.994;2023-09-07T16:25:08;27.20;82.90
981;DHT22;479;53.514;9.994;2023-09-07T16:27:35;27.20;83.30
981;DHT22;479;53.514;9.994;2023-09-07T16:30:08;27.20;83.70
981;DHT22;479;53.514;9.994;2023-09-07T16:32:35;27.10;83.70
981;DHT22;479;53.514;9.994;2023-09-07T16:35:04;27.10;83.80
981;DHT22;479;53.514;9.994;2023-09-07T16:37:30;27.10;84.20
981;DHT22;479;53.514;9.994;2023-09-07T16:39:57;27.00;84.20
981;DHT22;479;53.514;9.994;2023-09-07T16:42:26;27.00;84.50